createdAt,value
2018-05-13T00:00:31.360Z,18.70
2018-05-13T00:02:59.596Z,18.70
2018-05-13T00:05:27.081Z,18.70
2018-05-13T00:07:54.649Z,18.80
2018-05-13T00:10:22.962Z,18.70
2018-05-13T00:12:50.443Z,18.70
2018-05-13T00:15:18.031Z,18.70
2018-05-13T00:17:45.520Z,18.60
2018-05-13T00:20:12.999Z,18.70
2018-05-13T00:22:40.459Z,18.60
2018-05-13T00:25:08.011Z,18.60
2018-05-13T00:27:35.472Z,18.60
2018-05-13T00:30:02.950Z,18.60
2018-05-13T00:32:30.440Z,18.60
2018-05-13T00:34:58.758Z,18.50
2018-05-13T00:37:26.219Z,18.50
2018-05-13T00:39:53.700Z,18.50
2018-05-13T00:42:21.159Z,18.50
2018-05-13T00:44:48.642Z,18.50
2018-05-13T00:47:16.200Z,18.50
2018-05-13T00:49:44.559Z,18.50
2018-05-13T00:52:11.959Z,18.40
2018-05-13T00:54:51.472Z,18.50
2018-05-13T00:57:18.956Z,18.40
2018-05-13T00:59:46.491Z,18.40
2018-05-13T01:02:14.791Z,18.40
2018-05-13T01:04:42.263Z,18.30
2018-05-13T01:07:09.729Z,18.30
2018-05-13T01:09:37.203Z,18.30
2018-05-13T01:12:04.690Z,18.30
2018-05-13T01:14:32.171Z,18.30
2018-05-13T01:17:00.430Z,18.30
2018-05-13T01:19:28.706Z,18.20
2018-05-13T01:21:56.969Z,18.20
2018-05-13T01:24:24.540Z,18.20
2018-05-13T01:26:52.779Z,18.20
2018-05-13T01:29:20.373Z,18.20
2018-05-13T01:31:48.620Z,18.20
2018-05-13T01:34:16.099Z,18.20
2018-05-13T01:36:43.687Z,18.20
2018-05-13T01:39:11.211Z,18.20
2018-05-13T01:41:38.776Z,18.30
2018-05-13T01:44:06.322Z,18.20
2018-05-13T01:46:33.799Z,18.20
2018-05-13T01:49:02.047Z,18.20
2018-05-13T01:51:29.624Z,18.10
2018-05-13T01:53:57.087Z,18.10
2018-05-13T01:56:25.338Z,18.10
2018-05-13T01:58:52.800Z,18.10
2018-05-13T02:01:20.279Z,18.10
2018-05-13T02:03:48.518Z,18.10
2018-05-13T02:06:16.052Z,18.00
2018-05-13T02:08:43.541Z,18.00
2018-05-13T02:11:11.109Z,18.00
2018-05-13T02:13:38.583Z,18.00
2018-05-13T02:16:06.813Z,18.00
2018-05-13T02:18:34.304Z,18.00
2018-05-13T02:21:01.869Z,18.00
2018-05-13T02:23:30.124Z,18.00
2018-05-13T02:25:57.697Z,18.00
2018-05-13T02:28:26.675Z,18.00
2018-05-13T02:30:54.152Z,18.00
2018-05-13T02:33:21.654Z,18.00
2018-05-13T02:35:49.129Z,18.00
2018-05-13T02:38:16.604Z,18.00
2018-05-13T02:40:44.167Z,18.00
2018-05-13T02:43:11.655Z,17.90
2018-05-13T02:45:39.948Z,17.90
2018-05-13T02:48:07.425Z,17.90
2018-05-13T02:50:34.916Z,18.00
2018-05-13T02:53:03.168Z,17.90
2018-05-13T02:55:30.697Z,17.90
2018-05-13T02:57:58.189Z,17.90
2018-05-13T03:00:25.663Z,17.90
2018-05-13T03:02:53.151Z,17.90
2018-05-13T03:05:21.384Z,17.90
2018-05-13T03:07:48.860Z,17.80
2018-05-13T03:10:17.133Z,17.80
2018-05-13T03:12:44.688Z,17.80
2018-05-13T03:15:12.176Z,17.80
2018-05-13T03:17:40.544Z,17.80
2018-05-13T03:20:08.795Z,17.80
2018-05-13T03:22:36.359Z,17.80
2018-05-13T03:25:03.915Z,17.80
2018-05-13T03:27:31.475Z,17.80
2018-05-13T03:29:59.814Z,17.80
2018-05-13T03:32:28.057Z,17.80
2018-05-13T03:34:56.299Z,17.80
2018-05-13T03:37:23.759Z,17.80
2018-05-13T03:39:51.991Z,17.80
2018-05-13T03:42:19.467Z,17.80
2018-05-13T03:44:46.943Z,17.80
2018-05-13T03:47:14.519Z,17.80
2018-05-13T03:49:42.000Z,17.80
2018-05-13T03:52:09.468Z,17.80
2018-05-13T03:54:36.931Z,17.80
2018-05-13T03:57:04.404Z,17.80
2018-05-13T03:59:31.895Z,17.80
2018-05-13T04:02:00.225Z,17.80
2018-05-13T04:04:27.732Z,17.70
2018-05-13T04:06:55.201Z,17.80
2018-05-13T04:09:35.444Z,17.80
2018-05-13T04:12:14.882Z,17.80
2018-05-13T04:14:54.139Z,17.80
2018-05-13T04:17:22.400Z,17.90
2018-05-13T04:19:50.661Z,17.90
2018-05-13T04:22:18.948Z,17.90
2018-05-13T04:24:46.424Z,17.90
2018-05-13T04:27:14.725Z,18.00
2018-05-13T04:29:42.228Z,17.90
2018-05-13T04:32:09.689Z,18.00
2018-05-13T04:34:38.785Z,18.00
2018-05-13T04:37:07.018Z,18.10
2018-05-13T04:39:34.512Z,18.00
2018-05-13T04:42:01.996Z,18.10
2018-05-13T04:44:29.468Z,18.20
2018-05-13T04:46:56.946Z,18.20
2018-05-13T04:49:24.404Z,18.20
2018-05-13T04:51:51.875Z,18.30
2018-05-13T04:54:19.355Z,18.20
2018-05-13T04:56:46.841Z,18.30
2018-05-13T04:59:14.315Z,18.30
2018-05-13T05:01:41.783Z,18.40
2018-05-13T05:04:09.248Z,18.40
2018-05-13T05:06:36.739Z,18.50
2018-05-13T05:09:04.306Z,18.50
2018-05-13T05:11:31.859Z,18.50
2018-05-13T05:14:00.099Z,18.50
2018-05-13T05:16:27.621Z,18.50
2018-05-13T05:18:55.089Z,18.60
2018-05-13T05:21:22.563Z,18.60
2018-05-13T05:23:50.064Z,18.70
2018-05-13T05:26:17.622Z,18.70
2018-05-13T05:28:45.188Z,18.80
2018-05-13T05:31:12.739Z,18.80
2018-05-13T05:33:40.220Z,18.90
2018-05-13T05:36:08.475Z,19.10
2018-05-13T05:38:35.944Z,19.00
2018-05-13T05:41:04.192Z,19.20
2018-05-13T05:43:31.658Z,19.10
2018-05-13T05:45:59.219Z,19.20
2018-05-13T05:48:26.811Z,19.20
2018-05-13T05:50:55.075Z,19.30
2018-05-13T05:53:23.312Z,19.40
2018-05-13T05:55:50.897Z,19.30
2018-05-13T05:58:19.130Z,19.50
2018-05-13T06:00:46.610Z,19.50
2018-05-13T06:03:14.183Z,19.60
2018-05-13T06:05:41.739Z,19.70
2018-05-13T06:08:09.214Z,19.80
2018-05-13T06:10:37.448Z,20.00
2018-05-13T06:13:04.931Z,19.90
2018-05-13T06:15:32.398Z,20.00
2018-05-13T06:18:00.663Z,20.20
2018-05-13T06:20:28.227Z,20.20
2018-05-13T06:22:56.486Z,20.30
2018-05-13T06:25:24.068Z,20.30
2018-05-13T06:27:52.331Z,20.40
2018-05-13T06:30:19.802Z,20.30
2018-05-13T06:32:48.055Z,20.50
2018-05-13T06:35:15.527Z,20.40
2018-05-13T06:37:43.766Z,20.60
2018-05-13T06:40:11.273Z,20.60
2018-05-13T06:42:39.573Z,20.70
2018-05-13T06:45:07.229Z,20.70
2018-05-13T06:47:34.638Z,20.80
2018-05-13T06:50:02.108Z,20.90
2018-05-13T06:52:30.356Z,21.00
2018-05-13T06:54:57.842Z,20.90
2018-05-13T06:57:26.160Z,21.10
2018-05-13T06:59:54.382Z,21.20
2018-05-13T07:02:21.880Z,21.10
2018-05-13T07:04:49.446Z,21.30
2018-05-13T07:07:17.072Z,21.40
2018-05-13T07:09:45.313Z,21.40
2018-05-13T07:12:12.787Z,21.40
2018-05-13T07:14:40.646Z,21.50
2018-05-13T07:17:08.262Z,21.60
2018-05-13T07:19:36.003Z,21.70
2018-05-13T07:22:04.712Z,21.80
2018-05-13T07:24:32.617Z,21.80
2018-05-13T07:27:00.176Z,21.80
2018-05-13T07:29:27.779Z,21.90
2018-05-13T07:31:56.114Z,22.20
2018-05-13T07:34:23.697Z,22.10
2018-05-13T07:36:52.075Z,22.40
2018-05-13T07:39:20.352Z,22.40
2018-05-13T07:41:48.617Z,22.40
2018-05-13T07:44:16.089Z,22.40
2018-05-13T07:46:44.323Z,22.60
2018-05-13T07:49:11.809Z,22.50
2018-05-13T07:51:40.082Z,22.60
2018-05-13T07:54:07.552Z,22.60
2018-05-13T07:56:35.810Z,22.70
2018-05-13T07:59:03.417Z,22.70
2018-05-13T08:01:31.118Z,22.80
2018-05-13T08:03:58.732Z,22.80
2018-05-13T08:06:26.322Z,22.90
2018-05-13T08:08:53.792Z,22.90
2018-05-13T08:11:21.380Z,23.00
2018-05-13T08:13:49.615Z,23.10
2018-05-13T08:16:17.072Z,23.00
2018-05-13T08:18:44.563Z,23.10
2018-05-13T08:21:12.034Z,23.10
2018-05-13T08:23:40.312Z,23.30
2018-05-13T08:26:08.566Z,23.30
2018-05-13T08:28:36.027Z,23.20
2018-05-13T08:31:03.588Z,23.30
2018-05-13T08:33:31.835Z,23.50
2018-05-13T08:35:59.318Z,23.40
2018-05-13T08:38:26.820Z,23.60
2018-05-13T08:40:54.372Z,23.60
2018-05-13T08:43:21.845Z,23.70
2018-05-13T08:45:49.312Z,23.80
2018-05-13T08:48:16.775Z,24.10
2018-05-13T08:50:44.343Z,24.20
2018-05-13T08:53:11.825Z,24.20
2018-05-13T08:55:40.983Z,24.40
2018-05-13T08:58:08.448Z,24.40
2018-05-13T09:00:36.046Z,24.40
2018-05-13T09:03:04.273Z,24.40
2018-05-13T09:05:31.756Z,24.30
2018-05-13T09:08:00.733Z,24.30
2018-05-13T09:10:28.430Z,24.30
2018-05-13T09:12:56.703Z,24.60
2018-05-13T09:15:25.033Z,24.70
2018-05-13T09:17:52.511Z,24.70
2018-05-13T09:20:19.995Z,24.90
2018-05-13T09:22:48.227Z,24.90
2018-05-13T09:25:15.696Z,24.90
2018-05-13T09:27:43.177Z,25.00
2018-05-13T09:30:10.635Z,24.90
2018-05-13T09:32:38.109Z,24.90
2018-05-13T09:35:06.431Z,25.10
2018-05-13T09:37:33.949Z,25.00
2018-05-13T09:40:01.492Z,25.20
2018-05-13T09:42:29.767Z,25.30
2018-05-13T09:44:57.998Z,25.50
2018-05-13T09:47:25.499Z,25.40
2018-05-13T09:49:53.740Z,25.90
2018-05-13T09:52:21.328Z,25.90
2018-05-13T09:54:49.551Z,26.20
2018-05-13T09:57:17.016Z,26.10
2018-05-13T09:59:44.471Z,26.10
2018-05-13T10:02:11.948Z,26.10
2018-05-13T10:04:39.436Z,26.20
2018-05-13T10:07:07.746Z,26.50
2018-05-13T10:09:35.267Z,26.40
2018-05-13T10:12:02.739Z,26.50
2018-05-13T10:14:30.276Z,26.50
2018-05-13T10:16:57.744Z,26.50
2018-05-13T10:19:26.001Z,26.50
2018-05-13T10:21:53.475Z,26.50
2018-05-13T10:24:21.739Z,26.60
2018-05-13T10:26:49.208Z,26.60
2018-05-13T10:29:17.450Z,26.90
2018-05-13T10:31:44.915Z,26.90
2018-05-13T10:34:12.471Z,27.00
2018-05-13T10:36:39.952Z,27.20
2018-05-13T10:39:08.182Z,27.40
2018-05-13T10:41:35.639Z,27.40
2018-05-13T10:44:03.120Z,27.40
2018-05-13T10:46:30.603Z,27.40
2018-05-13T10:48:58.828Z,27.60
2018-05-13T10:51:26.408Z,27.60
2018-05-13T10:53:53.863Z,27.80
2018-05-13T10:56:21.427Z,28.00
2018-05-13T10:58:48.922Z,28.20
2018-05-13T11:01:16.431Z,28.30
2018-05-13T11:03:43.891Z,28.40
2018-05-13T11:06:11.356Z,28.50
2018-05-13T11:08:38.923Z,28.30
2018-05-13T11:11:06.390Z,28.30
2018-05-13T11:13:34.632Z,28.40
2018-05-13T11:16:02.101Z,28.30
2018-05-13T11:18:29.562Z,28.60
2018-05-13T11:20:57.811Z,28.60
2018-05-13T11:23:25.287Z,28.50
2018-05-13T11:25:52.844Z,28.70
2018-05-13T11:28:20.470Z,28.90
2018-05-13T11:30:47.943Z,29.00
2018-05-13T11:33:15.431Z,29.20
2018-05-13T11:35:42.908Z,29.30
2018-05-13T11:38:11.143Z,29.20
2018-05-13T11:40:38.615Z,29.10
2018-05-13T11:43:06.169Z,29.20
2018-05-13T11:45:33.731Z,29.40
2018-05-13T11:48:01.211Z,29.50
2018-05-13T11:50:29.443Z,30.00
2018-05-13T11:52:56.924Z,30.00
2018-05-13T11:55:24.397Z,30.10
2018-05-13T11:57:52.647Z,30.40
2018-05-13T12:00:20.103Z,30.40
2018-05-13T12:02:47.612Z,30.40
2018-05-13T12:05:15.076Z,30.50
2018-05-13T12:07:42.564Z,30.70
2018-05-13T12:10:10.140Z,30.70
2018-05-13T12:12:39.108Z,30.80
2018-05-13T12:15:06.585Z,30.80
2018-05-13T12:17:34.069Z,30.90
2018-05-13T12:20:02.327Z,30.80
2018-05-13T12:22:30.547Z,30.90
2018-05-13T12:24:58.035Z,30.80
2018-05-13T12:27:25.491Z,30.70
2018-05-13T12:29:52.958Z,30.80
2018-05-13T12:32:20.419Z,30.70
2018-05-13T12:34:48.662Z,30.80
2018-05-13T12:37:16.123Z,30.80
2018-05-13T12:39:43.587Z,31.20
2018-05-13T12:42:11.062Z,31.40
2018-05-13T12:44:38.627Z,31.40
2018-05-13T12:47:06.089Z,31.40
2018-05-13T12:49:33.643Z,31.40
2018-05-13T12:52:01.099Z,31.50
2018-05-13T12:54:28.563Z,31.70
2018-05-13T12:56:56.120Z,31.70
2018-05-13T12:59:23.575Z,31.70
2018-05-13T13:01:51.049Z,31.90
2018-05-13T13:04:19.280Z,32.40
2018-05-13T13:06:46.740Z,32.30
2018-05-13T13:09:14.216Z,32.60
2018-05-13T13:11:41.778Z,32.50
2018-05-13T13:14:10.021Z,32.40
2018-05-13T13:16:37.491Z,32.40
2018-05-13T13:19:04.949Z,32.30
2018-05-13T13:21:32.524Z,32.40
2018-05-13T13:23:59.983Z,32.50
2018-05-13T13:26:27.466Z,32.50
2018-05-13T13:28:54.931Z,32.60
2018-05-13T13:31:22.446Z,32.70
2018-05-13T13:33:50.011Z,32.70
2018-05-13T13:36:17.504Z,32.40
2018-05-13T13:38:45.032Z,32.40
2018-05-13T13:41:13.286Z,32.40
2018-05-13T13:43:40.760Z,32.30
2018-05-13T13:46:08.258Z,32.40
2018-05-13T13:48:35.776Z,32.50
2018-05-13T13:51:04.102Z,32.50
2018-05-13T13:53:31.670Z,32.50
2018-05-13T13:55:59.869Z,32.70
2018-05-13T13:58:28.109Z,32.70
2018-05-13T14:00:55.615Z,32.60
2018-05-13T14:03:23.164Z,32.70
2018-05-13T14:05:50.643Z,32.80
2018-05-13T14:08:18.903Z,32.80
2018-05-13T14:10:46.376Z,32.70
2018-05-13T14:13:14.635Z,33.10
2018-05-13T14:15:42.103Z,33.00
2018-05-13T14:18:09.627Z,32.70
2018-05-13T14:20:37.186Z,32.70
2018-05-13T14:23:04.572Z,32.70
2018-05-13T14:25:32.077Z,32.70
2018-05-13T14:27:59.540Z,32.80
2018-05-13T14:30:27.024Z,33.00
2018-05-13T14:32:54.532Z,32.80
2018-05-13T14:35:22.728Z,32.80
2018-05-13T14:37:50.212Z,32.70
2018-05-13T14:40:17.676Z,32.80
2018-05-13T14:42:45.250Z,32.70
2018-05-13T14:45:12.719Z,32.50
2018-05-13T14:47:40.965Z,32.60
2018-05-13T14:50:08.531Z,32.50
2018-05-13T14:52:36.771Z,32.70
2018-05-13T14:55:04.267Z,32.60
2018-05-13T14:57:31.819Z,32.60
2018-05-13T14:59:59.437Z,32.60
2018-05-13T15:02:26.903Z,32.70
2018-05-13T15:04:54.448Z,32.70
2018-05-13T15:07:29.709Z,32.70
2018-05-13T15:09:57.200Z,32.80
2018-05-13T15:12:24.673Z,33.00
2018-05-13T15:14:52.915Z,32.90
2018-05-13T15:17:20.483Z,32.90
2018-05-13T15:19:47.943Z,32.80
2018-05-13T15:22:15.453Z,32.60
2018-05-13T15:24:43.663Z,32.40
2018-05-13T15:27:11.135Z,32.30
2018-05-13T15:29:38.611Z,32.40
2018-05-13T15:32:06.859Z,32.40
2018-05-13T15:34:34.324Z,32.30
2018-05-13T15:37:01.873Z,32.60
2018-05-13T15:39:29.336Z,32.60
2018-05-13T15:41:56.888Z,32.50
2018-05-13T15:44:24.350Z,32.30
2018-05-13T15:46:51.909Z,32.30
2018-05-13T15:49:19.371Z,32.20
2018-05-13T15:51:46.833Z,32.40
2018-05-13T15:54:15.163Z,32.40
2018-05-13T15:56:42.619Z,32.30
2018-05-13T15:59:10.112Z,32.00
2018-05-13T16:01:37.576Z,31.80
2018-05-13T16:04:05.131Z,31.70
2018-05-13T16:06:32.735Z,31.70
2018-05-13T16:09:00.183Z,32.00
2018-05-13T16:11:27.643Z,31.90
2018-05-13T16:13:55.124Z,32.10
2018-05-13T16:16:22.622Z,31.80
2018-05-13T16:18:50.237Z,31.70
2018-05-13T16:21:17.735Z,31.70
2018-05-13T16:23:45.287Z,31.50
2018-05-13T16:26:14.251Z,31.20
2018-05-13T16:28:41.723Z,31.20
2018-05-13T16:31:09.196Z,31.10
2018-05-13T16:33:36.759Z,31.00
2018-05-13T16:36:04.372Z,30.70
2018-05-13T16:38:31.882Z,30.60
2018-05-13T16:40:59.332Z,30.50
2018-05-13T16:43:26.892Z,30.20
2018-05-13T16:45:54.359Z,30.20
2018-05-13T16:48:21.903Z,30.20
2018-05-13T16:50:49.483Z,30.20
2018-05-13T16:53:17.825Z,29.90
2018-05-13T16:55:45.199Z,29.90
2018-05-13T16:58:13.483Z,29.80
2018-05-13T17:00:41.002Z,29.70
2018-05-13T17:03:08.493Z,29.60
2018-05-13T17:05:36.011Z,29.60
2018-05-13T17:08:03.581Z,29.50
2018-05-13T17:10:31.063Z,29.60
2018-05-13T17:12:59.287Z,29.30
2018-05-13T17:15:26.814Z,29.30
2018-05-13T17:17:55.276Z,29.40
2018-05-13T17:20:23.556Z,29.40
2018-05-13T17:22:51.796Z,29.30
2018-05-13T17:25:19.283Z,29.30
2018-05-13T17:27:46.842Z,29.20
2018-05-13T17:30:14.356Z,29.00
2018-05-13T17:32:41.910Z,28.90
2018-05-13T17:35:09.416Z,28.70
2018-05-13T17:37:36.916Z,28.30
2018-05-13T17:40:05.121Z,27.80
2018-05-13T17:42:32.608Z,27.70
2018-05-13T17:45:00.885Z,27.50
2018-05-13T17:47:28.443Z,27.50
2018-05-13T17:49:55.982Z,27.40
2018-05-13T17:52:23.409Z,27.30
2018-05-13T17:54:50.888Z,27.20
2018-05-13T17:57:18.396Z,27.10
2018-05-13T17:59:45.935Z,27.10
2018-05-13T18:02:13.401Z,27.10
2018-05-13T18:04:41.683Z,26.80
2018-05-13T18:07:09.915Z,26.80
2018-05-13T18:09:37.396Z,26.70
2018-05-13T18:12:05.680Z,26.50
2018-05-13T18:14:33.947Z,26.40
2018-05-13T18:17:02.260Z,26.40
2018-05-13T18:19:30.504Z,26.30
2018-05-13T18:21:58.779Z,26.20
2018-05-13T18:24:27.189Z,26.10
2018-05-13T18:26:54.608Z,26.00
2018-05-13T18:29:22.172Z,26.00
2018-05-13T18:31:50.418Z,25.80
2018-05-13T18:34:17.879Z,25.70
2018-05-13T18:36:45.359Z,25.70
2018-05-13T18:39:13.687Z,25.70
2018-05-13T18:41:41.112Z,25.70
2018-05-13T18:44:08.606Z,25.60
2018-05-13T18:46:36.113Z,25.50
2018-05-13T18:49:04.359Z,25.40
2018-05-13T18:51:31.839Z,25.30
2018-05-13T18:54:00.119Z,25.30
2018-05-13T18:56:28.365Z,25.30
2018-05-13T18:58:55.901Z,25.20
2018-05-13T19:01:23.401Z,25.30
2018-05-13T19:03:50.868Z,25.20
2018-05-13T19:06:19.146Z,25.00
2018-05-13T19:08:47.408Z,25.00
2018-05-13T19:11:14.971Z,25.00
2018-05-13T19:13:42.532Z,24.90
2018-05-13T19:16:10.782Z,24.90
2018-05-13T19:18:38.249Z,24.80
2018-05-13T19:21:05.726Z,24.80
2018-05-13T19:23:33.224Z,24.80
2018-05-13T19:26:00.704Z,24.80
2018-05-13T19:28:28.194Z,24.80
2018-05-13T19:30:56.685Z,24.60
2018-05-13T19:33:24.132Z,24.60
2018-05-13T19:35:52.411Z,24.50
2018-05-13T19:38:20.689Z,24.50
2018-05-13T19:40:48.943Z,24.40
2018-05-13T19:43:16.467Z,24.40
2018-05-13T19:45:44.683Z,24.30
2018-05-13T19:48:12.156Z,24.30
2018-05-13T19:50:40.391Z,24.20
2018-05-13T19:53:07.903Z,24.20
2018-05-13T19:55:35.543Z,24.20
2018-05-13T19:58:03.820Z,24.00
2018-05-13T20:00:32.054Z,23.90
2018-05-13T20:02:59.589Z,23.90
2018-05-13T20:05:27.797Z,23.80
2018-05-13T20:07:55.274Z,23.80
2018-05-13T20:10:24.267Z,23.80
2018-05-13T20:12:51.839Z,23.80
2018-05-13T20:15:20.067Z,23.80
2018-05-13T20:17:47.540Z,23.70
2018-05-13T20:20:15.103Z,23.70
2018-05-13T20:25:41.256Z,23.60
2018-05-13T20:28:08.738Z,23.50
2018-05-13T20:30:36.963Z,23.30
2018-05-13T20:33:04.455Z,23.30
2018-05-13T20:35:32.680Z,23.30
2018-05-13T20:38:00.147Z,23.20
2018-05-13T20:40:27.616Z,23.20
2018-05-13T20:42:55.087Z,23.20
2018-05-13T20:45:22.558Z,23.20
2018-05-13T20:47:50.832Z,23.00
2018-05-13T20:50:18.461Z,23.00
2018-05-13T20:52:45.963Z,23.00
2018-05-13T20:55:14.216Z,22.90
2018-05-13T20:57:41.723Z,22.80
2018-05-13T21:00:09.920Z,22.70
2018-05-13T21:02:37.395Z,22.70
2018-05-13T21:05:04.860Z,22.70
2018-05-13T21:07:32.328Z,22.70
2018-05-13T21:10:00.564Z,22.60
2018-05-13T21:12:28.039Z,22.60
2018-05-13T21:14:55.503Z,22.60
2018-05-13T21:17:22.976Z,22.60
2018-05-13T21:19:51.263Z,22.50
2018-05-13T21:22:19.536Z,22.50
2018-05-13T21:24:47.067Z,22.50
2018-05-13T21:27:14.563Z,22.50
2018-05-13T21:29:42.022Z,22.50
2018-05-13T21:32:09.684Z,22.40
2018-05-13T21:34:37.170Z,22.30
2018-05-13T21:37:04.651Z,22.30
2018-05-13T21:39:32.115Z,22.30
2018-05-13T21:41:59.599Z,22.30
2018-05-13T21:44:27.917Z,22.30
2018-05-13T21:46:55.407Z,22.30
2018-05-13T21:49:22.983Z,22.30
2018-05-13T21:51:51.243Z,22.20
2018-05-13T21:54:18.898Z,22.10
2018-05-13T21:56:46.376Z,22.20
2018-05-13T21:59:14.616Z,22.10
2018-05-13T22:01:42.120Z,22.00
2018-05-13T22:04:10.428Z,22.00
2018-05-13T22:06:37.940Z,22.00
2018-05-13T22:09:06.280Z,21.90
2018-05-13T22:11:33.744Z,21.90
2018-05-13T22:14:01.330Z,21.90
2018-05-13T22:16:28.804Z,21.80
2018-05-13T22:18:57.051Z,21.70
2018-05-13T22:21:24.549Z,21.60
2018-05-13T22:23:52.065Z,21.60
2018-05-13T22:26:19.532Z,21.60
2018-05-13T22:28:47.770Z,21.50
2018-05-13T22:31:15.256Z,21.50
2018-05-13T22:33:42.719Z,21.50
2018-05-13T22:36:10.192Z,21.60
2018-05-13T22:38:38.448Z,21.50
2018-05-13T22:41:05.909Z,21.50
2018-05-13T22:43:33.376Z,21.50
2018-05-13T22:46:01.606Z,21.50
2018-05-13T22:48:29.073Z,21.50
2018-05-13T22:50:56.527Z,21.40
2018-05-13T22:53:23.988Z,21.40
2018-05-13T22:55:51.536Z,21.40
2018-05-13T22:58:19.019Z,21.40
2018-05-13T23:00:46.572Z,21.40
2018-05-13T23:03:14.847Z,21.40
2018-05-13T23:05:42.635Z,21.40
2018-05-13T23:08:10.665Z,21.30
2018-05-13T23:10:38.144Z,21.30
2018-05-13T23:13:05.664Z,21.30
2018-05-13T23:15:33.871Z,21.20
2018-05-13T23:18:01.346Z,21.10
2018-05-13T23:20:29.629Z,21.20
2018-05-13T23:22:58.584Z,21.10
2018-05-13T23:25:26.062Z,21.10
2018-05-13T23:27:53.604Z,21.10
2018-05-13T23:30:21.764Z,21.10
2018-05-13T23:32:49.221Z,21.00
2018-05-13T23:35:16.723Z,21.00
2018-05-13T23:37:45.021Z,21.00
2018-05-13T23:40:12.529Z,21.00
2018-05-13T23:42:40.016Z,21.00
2018-05-13T23:45:08.245Z,20.80
2018-05-13T23:47:35.719Z,20.80
2018-05-13T23:50:03.185Z,20.80
2018-05-13T23:52:30.667Z,20.80
2018-05-13T23:54:58.187Z,20.80
2018-05-13T23:57:25.655Z,20.80
2018-05-13T23:59:53.132Z,20.70
